Terminal Aerodrome Forecast
Issued by NWS

Current Version | Previous Version | Text Only | Print | Product List | Glossary On
Versions: 1 2 3 4 5 6 7 8 9 10 11 12 13 14 15 16 17 18 19 20 21 22 23 24 25 26 27 28 29 30 31 32 33 34 35
003
FTUS44 KFWD 181642 AAB
TAFFTW
TAF AMD
KFTW 181642Z 1817/1912 13005KT 1 1/2SM BR OVC003
      TEMPO 1817/1819 2SM BR
     FM181900 14005KT 3SM BR OVC005
     FM182100 14005KT 5SM BR OVC007
     FM190600 16007KT 2SM -DZ BR OVC004=

USA.gov is the U.S. government's official web portal to all federal, state and local government web resources and services.